createdAt,value
2022-11-03T00:02:07.386Z,2.53
2022-11-03T00:04:33.867Z,2.00
2022-11-03T00:07:00.696Z,2.13
2022-11-03T00:09:27.702Z,2.27
2022-11-03T00:11:54.733Z,2.27
2022-11-03T00:14:21.356Z,1.90
2022-11-03T00:16:47.977Z,2.00
2022-11-03T00:19:16.871Z,2.00
2022-11-03T00:21:43.920Z,1.90
2022-11-03T00:24:11.124Z,2.10
2022-11-03T00:26:38.707Z,2.13
2022-11-03T00:29:12.717Z,2.00
2022-11-03T00:31:41.006Z,2.20
2022-11-03T00:34:07.898Z,2.40
2022-11-03T00:36:42.910Z,2.90
2022-11-03T00:39:10.384Z,1.93
2022-11-03T00:41:37.440Z,2.27
2022-11-03T00:44:04.069Z,2.70
2022-11-03T00:46:34.988Z,2.37
2022-11-03T00:49:04.425Z,2.20
2022-11-03T00:51:31.574Z,2.33
2022-11-03T00:54:00.193Z,2.77
2022-11-03T00:56:28.524Z,2.73
2022-11-03T00:58:56.950Z,2.20
2022-11-03T01:01:26.723Z,2.20
2022-11-03T01:04:14.367Z,2.23
2022-11-03T01:06:50.868Z,2.50
2022-11-03T01:09:45.150Z,2.23
2022-11-03T01:12:17.570Z,2.50
2022-11-03T01:14:52.632Z,2.00
2022-11-03T01:17:25.656Z,2.90
2022-11-03T01:19:53.014Z,2.10
2022-11-03T01:22:20.932Z,2.17
2022-11-03T01:24:47.604Z,2.33
2022-11-03T01:27:17.721Z,2.77
2022-11-03T01:29:44.334Z,2.77
2022-11-03T01:32:11.632Z,2.37
2022-11-03T01:34:38.370Z,2.30
2022-11-03T01:37:05.499Z,2.40
2022-11-03T01:39:32.007Z,2.23
2022-11-03T01:41:58.982Z,2.23
2022-11-03T01:44:28.539Z,2.40
2022-11-03T01:47:23.447Z,2.20
2022-11-03T01:49:55.864Z,2.33
2022-11-03T01:52:33.896Z,2.57
2022-11-03T01:55:40.004Z,2.43
2022-11-03T01:58:11.941Z,1.93
2022-11-03T02:00:41.324Z,2.10
2022-11-03T02:03:08.372Z,2.30
2022-11-03T02:05:36.206Z,2.40
2022-11-03T02:08:10.843Z,2.40
2022-11-03T02:10:38.207Z,2.03
2022-11-03T02:13:12.552Z,2.07
2022-11-03T02:15:39.827Z,1.93
2022-11-03T02:18:07.963Z,2.60
2022-11-03T02:20:34.861Z,2.37
2022-11-03T02:23:10.223Z,2.30
2022-11-03T02:25:42.902Z,2.67
2022-11-03T02:28:10.949Z,2.40
2022-11-03T02:30:51.294Z,2.20
2022-11-03T02:33:31.764Z,2.83
2022-11-03T02:36:17.884Z,2.13
2022-11-03T02:38:58.110Z,2.13
2022-11-03T02:41:26.096Z,2.50
2022-11-03T02:43:55.101Z,2.37
2022-11-03T02:46:25.913Z,2.20
2022-11-03T02:48:52.953Z,2.17
2022-11-03T02:51:19.631Z,2.37
2022-11-03T02:54:03.129Z,2.30
2022-11-03T02:56:34.991Z,2.40
2022-11-03T02:59:06.972Z,2.47
2022-11-03T03:01:46.783Z,2.83
2022-11-03T03:04:22.383Z,2.73
2022-11-03T03:07:02.665Z,2.60
2022-11-03T03:09:36.024Z,2.40
2022-11-03T03:12:04.886Z,2.40
2022-11-03T03:14:37.624Z,2.80
2022-11-03T03:17:30.975Z,2.17
2022-11-03T03:20:17.775Z,2.30
2022-11-03T03:22:57.145Z,1.93
2022-11-03T03:25:29.518Z,2.20
2022-11-03T03:28:13.538Z,2.33
2022-11-03T03:30:43.853Z,2.50
2022-11-03T03:33:11.227Z,2.53
2022-11-03T03:35:40.181Z,2.60
2022-11-03T03:38:13.901Z,2.27
2022-11-03T03:40:42.993Z,2.63
2022-11-03T03:43:14.151Z,2.23
2022-11-03T03:45:43.063Z,2.03
2022-11-03T03:48:09.766Z,2.33
2022-11-03T03:50:38.636Z,2.47
2022-11-03T03:53:09.441Z,2.20
2022-11-03T03:55:42.034Z,2.57
2022-11-03T03:58:11.917Z,3.00
2022-11-03T04:00:40.159Z,2.60
2022-11-03T04:03:13.611Z,2.53
2022-11-03T04:05:40.055Z,2.40
2022-11-03T04:08:06.693Z,2.40
2022-11-03T04:10:33.557Z,2.70
2022-11-03T04:13:18.872Z,2.60
2022-11-03T04:15:57.278Z,2.30
2022-11-03T04:18:42.559Z,2.43
2022-11-03T04:21:31.715Z,2.60
2022-11-03T04:24:00.358Z,2.93
2022-11-03T04:26:28.155Z,3.00
2022-11-03T04:28:56.205Z,2.77
2022-11-03T04:31:22.902Z,2.83
2022-11-03T04:33:49.487Z,2.97
2022-11-03T04:36:22.000Z,2.33
2022-11-03T04:38:49.954Z,2.60
2022-11-03T04:41:38.787Z,2.60
2022-11-03T04:44:10.621Z,2.63
2022-11-03T04:46:37.104Z,2.70
2022-11-03T04:49:05.666Z,2.60
2022-11-03T04:51:34.887Z,2.93
2022-11-03T04:54:15.918Z,3.40
2022-11-03T04:56:42.499Z,3.27
2022-11-03T04:59:12.805Z,2.50
2022-11-03T05:01:39.908Z,2.63
2022-11-03T05:04:13.724Z,2.43
2022-11-03T05:06:40.783Z,3.10
2022-11-03T05:09:17.929Z,3.07
2022-11-03T05:11:46.478Z,2.70
2022-11-03T05:14:25.812Z,2.90
2022-11-03T05:16:54.496Z,3.10
2022-11-03T05:19:27.159Z,2.73
2022-11-03T05:21:58.181Z,2.40
2022-11-03T05:24:26.136Z,2.90
2022-11-03T05:26:54.916Z,2.87
2022-11-03T05:29:23.843Z,2.60
2022-11-03T05:31:53.772Z,2.73
2022-11-03T05:34:34.976Z,2.73
2022-11-03T05:37:26.819Z,2.73
2022-11-03T05:39:57.051Z,2.80
2022-11-03T05:42:23.523Z,2.80
2022-11-03T05:44:51.660Z,2.73
2022-11-03T05:47:25.099Z,2.40
2022-11-03T05:49:56.113Z,2.47
2022-11-03T05:52:25.731Z,2.93
2022-11-03T05:54:59.285Z,3.33
2022-11-03T05:57:29.424Z,3.20
2022-11-03T05:59:57.345Z,2.67
2022-11-03T06:02:38.679Z,2.33
2022-11-03T06:05:20.359Z,2.73
2022-11-03T06:07:48.251Z,2.80
2022-11-03T06:10:24.023Z,2.60
2022-11-03T06:12:50.682Z,2.50
2022-11-03T06:15:28.607Z,2.80
2022-11-03T06:17:56.109Z,2.80
2022-11-03T06:20:23.264Z,2.80
2022-11-03T06:22:52.632Z,2.63
2022-11-03T06:25:27.056Z,3.20
2022-11-03T06:27:58.028Z,2.80
2022-11-03T06:30:28.116Z,2.97
2022-11-03T06:33:07.388Z,3.40
2022-11-03T06:35:34.971Z,3.37
2022-11-03T06:38:02.264Z,2.90
2022-11-03T06:40:37.104Z,2.63
2022-11-03T06:43:16.514Z,2.63
2022-11-03T06:45:52.527Z,2.80
2022-11-03T06:48:25.037Z,2.73
2022-11-03T06:50:52.727Z,3.17
2022-11-03T06:53:25.337Z,2.60
2022-11-03T06:55:52.051Z,2.70
2022-11-03T06:58:30.674Z,3.17
2022-11-03T07:01:03.633Z,2.63
2022-11-03T07:03:37.543Z,2.53
2022-11-03T07:06:10.102Z,3.10
2022-11-03T07:08:43.609Z,2.77
2022-11-03T07:11:22.822Z,2.67
2022-11-03T07:13:56.110Z,3.03
2022-11-03T07:16:27.850Z,2.57
2022-11-03T07:18:56.390Z,2.73
2022-11-03T07:21:26.179Z,2.70
2022-11-03T07:23:52.974Z,3.10
2022-11-03T07:26:19.515Z,3.13
2022-11-03T07:28:48.404Z,2.67
2022-11-03T07:31:25.374Z,2.30
2022-11-03T07:34:01.335Z,2.57
2022-11-03T07:36:31.828Z,3.10
2022-11-03T07:39:00.467Z,2.80
2022-11-03T07:41:34.223Z,2.90
2022-11-03T07:44:02.486Z,2.53
2022-11-03T07:46:29.388Z,2.83
2022-11-03T07:49:02.221Z,2.70
2022-11-03T07:51:41.003Z,2.87
2022-11-03T07:54:19.444Z,2.57
2022-11-03T07:56:50.762Z,2.60
2022-11-03T07:59:21.804Z,2.73
2022-11-03T08:01:54.136Z,2.83
2022-11-03T08:04:25.782Z,2.70
2022-11-03T08:06:52.755Z,2.80
2022-11-03T08:09:19.719Z,2.80
2022-11-03T08:11:46.333Z,2.60
2022-11-03T08:14:13.539Z,3.00
2022-11-03T08:16:40.353Z,2.63
2022-11-03T08:19:07.072Z,2.53
2022-11-03T08:21:33.738Z,2.80
2022-11-03T08:24:00.514Z,2.77
2022-11-03T08:26:28.098Z,2.63
2022-11-03T08:28:54.803Z,2.77
2022-11-03T08:31:21.444Z,2.40
2022-11-03T08:33:48.032Z,2.50
2022-11-03T08:36:14.651Z,2.47
2022-11-03T08:38:41.353Z,2.20
2022-11-03T08:41:07.926Z,2.70
2022-11-03T08:43:34.477Z,2.63
2022-11-03T08:46:09.765Z,2.93
2022-11-03T08:48:42.333Z,2.93
2022-11-03T08:51:10.274Z,2.70
2022-11-03T08:53:38.452Z,2.90
2022-11-03T08:56:10.284Z,2.57
2022-11-03T08:58:39.195Z,2.70
2022-11-03T09:01:05.858Z,2.70
2022-11-03T09:03:32.361Z,2.73
2022-11-03T09:05:59.252Z,2.80
2022-11-03T09:11:12.922Z,2.53
2022-11-03T09:13:39.510Z,2.43
2022-11-03T09:16:06.510Z,2.83
2022-11-03T09:18:34.097Z,2.50
2022-11-03T09:21:00.765Z,2.63
2022-11-03T09:23:27.815Z,3.10
2022-11-03T09:25:55.693Z,3.07
2022-11-03T09:28:23.071Z,2.87
2022-11-03T09:30:49.594Z,2.80
2022-11-03T09:33:16.122Z,2.40
2022-11-03T09:35:42.597Z,2.50
2022-11-03T09:38:09.119Z,2.70
2022-11-03T09:40:36.229Z,2.67
2022-11-03T09:43:03.395Z,2.60
2022-11-03T09:45:30.201Z,2.93
2022-11-03T09:47:57.688Z,2.90
2022-11-03T09:50:25.097Z,2.50
2022-11-03T09:52:54.439Z,2.57
2022-11-03T09:55:26.280Z,2.70
2022-11-03T09:58:00.698Z,2.50
2022-11-03T10:00:27.930Z,2.80
2022-11-03T10:02:56.112Z,2.90
2022-11-03T10:05:27.791Z,3.03
2022-11-03T10:08:00.717Z,3.00
2022-11-03T10:10:27.964Z,2.70
2022-11-03T10:12:55.336Z,2.93
2022-11-03T10:15:23.751Z,2.80
2022-11-03T10:17:51.245Z,2.97
2022-11-03T10:20:21.077Z,3.20
2022-11-03T10:22:52.588Z,2.70
2022-11-03T10:25:40.079Z,2.30
2022-11-03T10:28:27.205Z,2.40
2022-11-03T10:31:11.635Z,2.33
2022-11-03T10:34:00.840Z,2.37
2022-11-03T10:36:30.405Z,2.57
2022-11-03T10:38:58.337Z,2.30
2022-11-03T10:41:27.893Z,2.60
2022-11-03T10:44:12.618Z,2.80
2022-11-03T10:46:56.038Z,2.37
2022-11-03T10:49:23.241Z,2.37
2022-11-03T10:51:59.386Z,2.83
2022-11-03T10:54:26.391Z,2.53
2022-11-03T10:56:53.107Z,2.70
2022-11-03T10:59:22.394Z,2.43
2022-11-03T11:01:49.159Z,2.60
2022-11-03T11:04:20.510Z,2.50
2022-11-03T11:06:47.934Z,2.40
2022-11-03T11:09:21.232Z,2.30
2022-11-03T11:12:05.592Z,2.83
2022-11-03T11:14:39.116Z,2.70
2022-11-03T11:17:06.370Z,2.43
2022-11-03T11:20:13.174Z,2.60
2022-11-03T11:22:39.729Z,2.20
2022-11-03T11:25:06.632Z,2.60
2022-11-03T11:27:35.816Z,2.27
2022-11-03T11:30:30.636Z,2.20
2022-11-03T11:33:15.136Z,2.50
2022-11-03T11:35:41.571Z,2.60
2022-11-03T11:38:55.496Z,2.70
2022-11-03T11:42:02.269Z,2.70
2022-11-03T11:44:45.695Z,2.73
2022-11-03T11:47:46.163Z,2.50
2022-11-03T11:50:21.518Z,1.77
2022-11-03T11:52:59.357Z,2.27
2022-11-03T11:55:34.831Z,2.47
2022-11-03T11:58:03.985Z,2.30
2022-11-03T12:00:33.315Z,2.30
2022-11-03T12:03:02.366Z,2.50
2022-11-03T12:05:32.792Z,2.03
2022-11-03T12:08:00.573Z,2.33
2022-11-03T12:10:30.079Z,2.17
2022-11-03T12:12:59.525Z,2.50
2022-11-03T12:15:56.547Z,2.43
2022-11-03T12:18:39.189Z,2.23
2022-11-03T12:21:09.655Z,2.50
2022-11-03T12:23:47.298Z,2.90
2022-11-03T12:26:29.382Z,2.50
2022-11-03T12:28:56.203Z,2.40
2022-11-03T12:31:22.716Z,2.70
2022-11-03T12:33:49.220Z,2.80
2022-11-03T12:36:15.735Z,2.37
2022-11-03T12:38:42.433Z,3.03
2022-11-03T12:41:27.000Z,2.70
2022-11-03T12:43:54.407Z,2.90
2022-11-03T12:46:22.192Z,2.93
2022-11-03T12:48:49.291Z,2.80
2022-11-03T12:51:18.120Z,3.57
2022-11-03T12:53:45.236Z,3.27
2022-11-03T12:56:12.725Z,3.13
2022-11-03T12:58:39.544Z,3.10
2022-11-03T13:01:07.508Z,3.40
2022-11-03T13:03:35.842Z,3.17
2022-11-03T13:06:04.645Z,4.13
2022-11-03T13:08:31.868Z,3.30
2022-11-03T13:10:58.879Z,2.60
2022-11-03T13:13:27.105Z,2.80
2022-11-03T13:15:54.006Z,2.67
2022-11-03T13:18:22.507Z,3.00
2022-11-03T13:20:49.226Z,3.50
2022-11-03T13:23:18.758Z,3.07
2022-11-03T13:25:48.827Z,3.17
2022-11-03T13:28:15.438Z,3.20
2022-11-03T13:30:41.952Z,2.93
2022-11-03T13:33:09.194Z,3.03
2022-11-03T13:35:36.038Z,3.00
2022-11-03T13:38:02.596Z,3.00
2022-11-03T13:40:54.973Z,2.70
2022-11-03T13:43:15.847Z,2.60
2022-11-03T13:45:42.339Z,3.10
2022-11-03T13:50:57.589Z,3.17
2022-11-03T13:56:16.914Z,3.03
2022-11-03T14:01:35.745Z,4.03
2022-11-03T14:06:49.093Z,3.30
2022-11-03T14:09:15.595Z,2.80
2022-11-03T14:12:00.885Z,3.33
2022-11-03T14:14:27.824Z,3.40
2022-11-03T14:16:54.834Z,3.17
2022-11-03T14:19:21.829Z,2.87
2022-11-03T14:21:48.373Z,2.83
2022-11-03T14:24:14.954Z,2.80
2022-11-03T14:26:43.088Z,2.60
2022-11-03T14:29:10.472Z,2.80
2022-11-03T14:31:37.171Z,2.90
2022-11-03T14:34:03.696Z,2.93
2022-11-03T14:36:30.168Z,2.73
2022-11-03T14:38:58.596Z,2.67
2022-11-03T14:41:44.115Z,2.90
2022-11-03T14:44:10.601Z,3.40
2022-11-03T14:46:37.184Z,3.20
2022-11-03T14:49:03.701Z,3.10
2022-11-03T14:51:30.844Z,2.87
2022-11-03T14:53:58.469Z,3.17
2022-11-03T14:56:25.837Z,3.23
2022-11-03T14:58:52.364Z,3.20
2022-11-03T15:01:19.948Z,2.93
2022-11-03T15:03:46.763Z,3.07
2022-11-03T15:06:13.296Z,3.13
2022-11-03T15:08:39.910Z,3.13
2022-11-03T15:11:10.488Z,2.90
2022-11-03T15:13:41.721Z,2.90
2022-11-03T15:16:12.549Z,3.40
2022-11-03T15:18:39.009Z,3.20
2022-11-03T15:21:05.772Z,3.00
2022-11-03T15:26:18.761Z,3.10
2022-11-03T15:28:45.228Z,3.20
2022-11-03T15:31:11.683Z,2.90
2022-11-03T15:33:38.211Z,3.13
2022-11-03T15:36:06.972Z,2.93
2022-11-03T15:38:33.755Z,3.13
2022-11-03T15:41:15.573Z,3.00
2022-11-03T15:43:47.141Z,3.27
2022-11-03T15:46:15.250Z,3.33
2022-11-03T15:48:42.836Z,3.50
2022-11-03T15:51:10.065Z,3.03
2022-11-03T15:53:36.769Z,3.90
2022-11-03T15:56:03.799Z,3.57
2022-11-03T15:58:33.948Z,3.23
2022-11-03T16:01:02.310Z,3.13
2022-11-03T16:03:29.669Z,3.40
2022-11-03T16:05:56.488Z,3.73
2022-11-03T16:08:22.973Z,3.13
2022-11-03T16:10:53.304Z,3.17
2022-11-03T16:13:24.782Z,3.10
2022-11-03T16:15:51.713Z,3.23
2022-11-03T16:18:18.291Z,2.90
2022-11-03T16:20:44.826Z,3.30
2022-11-03T16:23:12.063Z,3.50
2022-11-03T16:25:38.661Z,3.83
2022-11-03T16:28:05.606Z,3.30
2022-11-03T16:30:33.496Z,3.50
2022-11-03T16:33:00.053Z,3.63
2022-11-03T16:35:29.327Z,3.40
2022-11-03T16:37:56.175Z,3.50
2022-11-03T16:40:22.703Z,3.83
2022-11-03T16:42:49.126Z,3.37
2022-11-03T16:45:18.646Z,3.87
2022-11-03T16:47:46.818Z,3.60
2022-11-03T16:50:14.766Z,3.20
2022-11-03T16:52:41.218Z,3.67
2022-11-03T16:55:10.317Z,3.00
2022-11-03T16:57:36.805Z,3.37
2022-11-03T17:00:05.187Z,3.70
2022-11-03T17:02:31.916Z,3.63
2022-11-03T17:04:58.493Z,4.03
2022-11-03T17:07:25.411Z,3.67
2022-11-03T17:09:52.470Z,3.80
2022-11-03T17:12:19.065Z,3.73
2022-11-03T17:14:45.805Z,3.90
2022-11-03T17:17:12.573Z,3.37
2022-11-03T17:19:39.276Z,3.17
2022-11-03T17:22:05.785Z,3.50
2022-11-03T17:24:32.369Z,3.37
2022-11-03T17:27:00.667Z,3.43
2022-11-03T17:29:41.742Z,3.40
2022-11-03T17:32:13.572Z,3.40
2022-11-03T17:34:40.147Z,3.30
2022-11-03T17:37:06.897Z,3.53
2022-11-03T17:39:34.399Z,3.83
2022-11-03T17:42:13.549Z,3.90
2022-11-03T17:44:40.123Z,3.80
2022-11-03T17:47:06.647Z,3.43
2022-11-03T17:49:33.497Z,3.33
2022-11-03T17:52:00.007Z,3.30
2022-11-03T17:54:32.007Z,3.70
2022-11-03T17:57:00.733Z,3.37
2022-11-03T17:59:27.948Z,3.50
2022-11-03T18:01:55.678Z,3.60
2022-11-03T18:04:22.927Z,3.60
2022-11-03T18:06:49.414Z,3.50
2022-11-03T18:09:16.261Z,4.00
2022-11-03T18:12:02.130Z,3.80
2022-11-03T18:14:29.640Z,3.60
2022-11-03T18:16:57.142Z,3.60
2022-11-03T18:19:23.649Z,3.67
2022-11-03T18:21:50.171Z,3.40
2022-11-03T18:24:19.585Z,3.57
2022-11-03T18:26:46.061Z,3.47
2022-11-03T18:29:12.554Z,3.60
2022-11-03T18:31:42.884Z,3.50
2022-11-03T18:34:17.022Z,3.90
2022-11-03T18:36:44.279Z,3.63
2022-11-03T18:39:16.790Z,3.97
2022-11-03T18:41:44.600Z,3.50
2022-11-03T18:44:25.505Z,3.63
2022-11-03T18:46:52.681Z,3.73
2022-11-03T18:49:19.781Z,3.57
2022-11-03T18:52:02.841Z,3.60
2022-11-03T18:54:31.504Z,3.90
2022-11-03T18:56:58.535Z,3.60
2022-11-03T18:59:32.152Z,3.80
2022-11-03T19:01:59.590Z,3.93
2022-11-03T19:04:26.986Z,3.90
2022-11-03T19:06:53.846Z,3.67
2022-11-03T19:09:26.076Z,4.23
2022-11-03T19:11:56.265Z,3.97
2022-11-03T19:14:26.257Z,4.37
2022-11-03T19:19:39.926Z,3.70
2022-11-03T19:22:15.364Z,4.10
2022-11-03T19:24:45.330Z,4.03
2022-11-03T19:27:25.862Z,3.90
2022-11-03T19:29:53.324Z,3.63
2022-11-03T19:32:24.505Z,4.10
2022-11-03T19:34:56.357Z,3.23
2022-11-03T19:37:22.920Z,3.13
2022-11-03T19:39:49.552Z,3.10
2022-11-03T19:42:31.092Z,3.03
2022-11-03T19:44:59.490Z,3.27
2022-11-03T19:47:31.704Z,3.10
2022-11-03T19:50:02.458Z,3.23
2022-11-03T19:52:30.559Z,3.50
2022-11-03T19:54:58.432Z,3.30
2022-11-03T19:57:25.024Z,3.70
2022-11-03T19:59:51.497Z,3.50
2022-11-03T20:02:18.082Z,3.60
2022-11-03T20:04:47.163Z,3.90
2022-11-03T20:07:15.577Z,3.50
2022-11-03T20:09:42.765Z,3.20
2022-11-03T20:12:12.129Z,3.77
2022-11-03T20:14:38.589Z,3.13
2022-11-03T20:17:17.667Z,3.70
2022-11-03T20:19:44.252Z,3.80
2022-11-03T20:22:16.175Z,3.90
2022-11-03T20:24:45.012Z,3.87
2022-11-03T20:27:12.196Z,3.50
2022-11-03T20:29:39.598Z,3.87
2022-11-03T20:32:06.449Z,3.60
2022-11-03T20:34:33.093Z,4.30
2022-11-03T20:37:04.443Z,3.60
2022-11-03T20:39:32.770Z,3.70
2022-11-03T20:41:59.756Z,3.50
2022-11-03T20:44:26.222Z,3.30
2022-11-03T20:46:52.705Z,3.40
2022-11-03T20:49:19.160Z,3.87
2022-11-03T20:51:47.154Z,3.00
2022-11-03T20:54:17.493Z,3.60
2022-11-03T20:56:44.157Z,3.50
2022-11-03T20:59:13.508Z,3.33
2022-11-03T21:01:41.291Z,3.40
2022-11-03T21:04:14.098Z,3.30
2022-11-03T21:06:40.789Z,3.57
2022-11-03T21:09:11.909Z,3.37
2022-11-03T21:11:40.461Z,3.70
2022-11-03T21:14:12.916Z,3.43
2022-11-03T21:16:58.139Z,3.50
2022-11-03T21:19:45.770Z,3.60
2022-11-03T21:22:30.767Z,3.43
2022-11-03T21:25:01.020Z,3.23
2022-11-03T21:27:28.038Z,3.33
2022-11-03T21:29:59.418Z,3.50
2022-11-03T21:32:28.033Z,3.40
2022-11-03T21:34:54.754Z,3.50
2022-11-03T21:37:21.365Z,3.57
2022-11-03T21:39:47.804Z,3.67
2022-11-03T21:42:34.409Z,3.60
2022-11-03T21:45:02.400Z,3.93
2022-11-03T21:47:28.997Z,4.03
2022-11-03T21:49:55.822Z,3.70
2022-11-03T21:52:32.941Z,4.00
2022-11-03T21:55:02.416Z,4.37
2022-11-03T21:57:29.683Z,4.73
2022-11-03T21:59:59.624Z,4.07
2022-11-03T22:02:28.092Z,4.07
2022-11-03T22:04:55.873Z,3.87
2022-11-03T22:07:23.013Z,4.33
2022-11-03T22:09:49.569Z,4.53
2022-11-03T22:12:16.149Z,4.20
2022-11-03T22:15:01.069Z,4.20
2022-11-03T22:17:27.901Z,4.17
2022-11-03T22:20:12.971Z,4.60
2022-11-03T22:22:58.388Z,4.20
2022-11-03T22:25:43.801Z,4.43
2022-11-03T22:28:14.646Z,4.07
2022-11-03T22:31:00.594Z,4.30
2022-11-03T22:33:27.875Z,4.53
2022-11-03T22:36:21.446Z,4.03
2022-11-03T22:39:06.959Z,4.40
2022-11-03T22:41:52.347Z,4.43
2022-11-03T22:44:37.507Z,4.40
2022-11-03T22:47:06.784Z,4.43
2022-11-03T22:49:34.920Z,4.53
2022-11-03T22:52:02.440Z,4.13
2022-11-03T22:54:28.877Z,4.40
2022-11-03T22:56:56.306Z,4.30
2022-11-03T22:59:22.992Z,4.40
2022-11-03T23:01:49.669Z,3.97
2022-11-03T23:04:16.249Z,4.40
2022-11-03T23:06:42.892Z,3.93
2022-11-03T23:09:12.686Z,4.47
2022-11-03T23:11:41.512Z,4.00
2022-11-03T23:14:10.952Z,4.40
2022-11-03T23:16:40.325Z,4.10
2022-11-03T23:19:28.197Z,4.20
2022-11-03T23:21:55.738Z,4.33
2022-11-03T23:24:45.092Z,4.13
2022-11-03T23:27:12.946Z,4.17
2022-11-03T23:29:39.441Z,4.20
2022-11-03T23:32:06.735Z,4.00
2022-11-03T23:34:35.048Z,3.97
2022-11-03T23:37:02.836Z,4.30
2022-11-03T23:39:29.443Z,4.37
2022-11-03T23:41:56.387Z,4.03
2022-11-03T23:44:23.021Z,4.03
2022-11-03T23:47:07.949Z,4.03
2022-11-03T23:49:34.391Z,4.10
2022-11-03T23:52:01.046Z,3.80
2022-11-03T23:54:27.628Z,4.03
2022-11-03T23:57:12.859Z,4.07
2022-11-03T23:59:39.352Z,4.33
